sensor_id;sensor_type;location;lat;lon;timestamp;P1;durP1;ratioP1;P2;durP2;ratioP2
61911;SDS011;49973;52.084;5.412;2024-02-16T00:01:33;1.57;;;1.20;;
61911;SDS011;49973;52.084;5.412;2024-02-16T00:04:03;1.80;;;1.30;;
61911;SDS011;49973;52.084;5.412;2024-02-16T00:06:31;2.57;;;1.63;;
61911;SDS011;49973;52.084;5.412;2024-02-16T00:09:00;4.07;;;1.20;;
61911;SDS011;49973;52.084;5.412;2024-02-16T00:11:30;3.33;;;2.10;;
61911;SDS011;49973;52.084;5.412;2024-02-16T00:13:58;2.00;;;1.23;;
61911;SDS011;49973;52.084;5.412;2024-02-16T00:16:27;1.73;;;1.20;;
61911;SDS011;49973;52.084;5.412;2024-02-16T00:18:57;2.07;;;1.53;;
61911;SDS011;49973;52.084;5.412;2024-02-16T00:21:26;2.73;;;1.63;;
61911;SDS011;49973;52.084;5.412;2024-02-16T00:23:55;1.27;;;1.10;;
61911;SDS011;49973;52.084;5.412;2024-02-16T00:26:24;1.90;;;1.47;;
61911;SDS011;49973;52.084;5.412;2024-02-16T00:28:53;1.93;;;0.90;;
61911;SDS011;49973;52.084;5.412;2024-02-16T00:31:21;3.10;;;1.10;;
61911;SDS011;49973;52.084;5.412;2024-02-16T00:33:50;1.80;;;1.17;;
61911;SDS011;49973;52.084;5.412;2024-02-16T00:36:20;1.47;;;1.10;;
61911;SDS011;49973;52.084;5.412;2024-02-16T00:38:48;1.53;;;1.43;;
61911;SDS011;49973;52.084;5.412;2024-02-16T00:41:18;3.57;;;1.40;;
61911;SDS011;49973;52.084;5.412;2024-02-16T00:43:47;2.20;;;1.50;;
61911;SDS011;49973;52.084;5.412;2024-02-16T00:46:16;1.17;;;1.07;;
61911;SDS011;49973;52.084;5.412;2024-02-16T00:48:44;2.70;;;1.57;;
61911;SDS011;49973;52.084;5.412;2024-02-16T00:51:14;2.20;;;1.13;;
61911;SDS011;49973;52.084;5.412;2024-02-16T00:53:44;1.37;;;1.10;;
61911;SDS011;49973;52.084;5.412;2024-02-16T00:56:13;1.67;;;1.57;;
61911;SDS011;49973;52.084;5.412;2024-02-16T00:58:42;2.00;;;1.43;;
61911;SDS011;49973;52.084;5.412;2024-02-16T01:01:10;3.67;;;1.33;;
61911;SDS011;49973;52.084;5.412;2024-02-16T01:03:39;2.00;;;1.13;;
61911;SDS011;49973;52.084;5.412;2024-02-16T01:06:08;1.30;;;1.00;;
61911;SDS011;49973;52.084;5.412;2024-02-16T01:08:37;2.10;;;1.30;;
61911;SDS011;49973;52.084;5.412;2024-02-16T01:11:07;2.93;;;1.20;;
61911;SDS011;49973;52.084;5.412;2024-02-16T01:13:35;3.67;;;1.47;;
61911;SDS011;49973;52.084;5.412;2024-02-16T01:16:04;3.33;;;1.37;;
61911;SDS011;49973;52.084;5.412;2024-02-16T01:18:34;2.87;;;1.40;;
61911;SDS011;49973;52.084;5.412;2024-02-16T01:21:04;2.57;;;1.37;;
61911;SDS011;49973;52.084;5.412;2024-02-16T01:23:33;1.30;;;1.10;;
61911;SDS011;49973;52.084;5.412;2024-02-16T01:26:01;1.43;;;1.30;;
61911;SDS011;49973;52.084;5.412;2024-02-16T01:28:32;2.60;;;2.00;;
61911;SDS011;49973;52.084;5.412;2024-02-16T01:31:00;2.07;;;1.40;;
61911;SDS011;49973;52.084;5.412;2024-02-16T01:33:29;1.40;;;1.30;;
61911;SDS011;49973;52.084;5.412;2024-02-16T01:36:02;1.33;;;1.23;;
61911;SDS011;49973;52.084;5.412;2024-02-16T01:38:31;4.10;;;1.30;;
61911;SDS011;49973;52.084;5.412;2024-02-16T01:41:00;2.43;;;1.30;;
61911;SDS011;49973;52.084;5.412;2024-02-16T01:43:29;2.00;;;1.23;;
61911;SDS011;49973;52.084;5.412;2024-02-16T01:45:59;1.47;;;1.03;;
61911;SDS011;49973;52.084;5.412;2024-02-16T01:48:27;3.30;;;1.13;;
61911;SDS011;49973;52.084;5.412;2024-02-16T01:50:57;2.30;;;1.43;;
61911;SDS011;49973;52.084;5.412;2024-02-16T01:53:28;5.13;;;1.73;;
61911;SDS011;49973;52.084;5.412;2024-02-16T01:55:57;1.67;;;1.23;;
61911;SDS011;49973;52.084;5.412;2024-02-16T01:58:26;1.57;;;1.10;;
61911;SDS011;49973;52.084;5.412;2024-02-16T02:00:54;1.70;;;1.40;;
61911;SDS011;49973;52.084;5.412;2024-02-16T02:03:25;1.47;;;1.37;;
61911;SDS011;49973;52.084;5.412;2024-02-16T02:05:54;2.90;;;1.30;;
61911;SDS011;49973;52.084;5.412;2024-02-16T02:08:23;1.50;;;1.20;;
61911;SDS011;49973;52.084;5.412;2024-02-16T02:10:53;2.33;;;1.23;;
61911;SDS011;49973;52.084;5.412;2024-02-16T02:13:21;1.33;;;1.20;;
61911;SDS011;49973;52.084;5.412;2024-02-16T02:15:50;1.70;;;1.60;;
61911;SDS011;49973;52.084;5.412;2024-02-16T02:18:18;3.03;;;1.40;;
61911;SDS011;49973;52.084;5.412;2024-02-16T02:20:49;1.30;;;1.20;;
61911;SDS011;49973;52.084;5.412;2024-02-16T02:23:19;2.37;;;1.50;;
61911;SDS011;49973;52.084;5.412;2024-02-16T02:25:47;1.90;;;1.20;;
61911;SDS011;49973;52.084;5.412;2024-02-16T02:28:17;3.30;;;1.20;;
61911;SDS011;49973;52.084;5.412;2024-02-16T02:30:46;1.43;;;1.33;;
61911;SDS011;49973;52.084;5.412;2024-02-16T02:33:15;3.63;;;1.77;;
61911;SDS011;49973;52.084;5.412;2024-02-16T02:35:43;5.00;;;2.00;;
61911;SDS011;49973;52.084;5.412;2024-02-16T02:38:12;1.60;;;1.03;;
61911;SDS011;49973;52.084;5.412;2024-02-16T02:40:42;3.30;;;1.80;;
61911;SDS011;49973;52.084;5.412;2024-02-16T02:43:11;2.10;;;0.93;;
61911;SDS011;49973;52.084;5.412;2024-02-16T02:45:40;1.80;;;1.07;;
61911;SDS011;49973;52.084;5.412;2024-02-16T02:48:09;7.07;;;1.50;;
61911;SDS011;49973;52.084;5.412;2024-02-16T02:50:38;2.80;;;1.60;;
61911;SDS011;49973;52.084;5.412;2024-02-16T02:53:06;3.03;;;1.57;;
61911;SDS011;49973;52.084;5.412;2024-02-16T02:55:35;4.03;;;1.80;;
61911;SDS011;49973;52.084;5.412;2024-02-16T02:58:05;1.53;;;1.43;;
61911;SDS011;49973;52.084;5.412;2024-02-16T03:00:33;1.97;;;1.23;;
61911;SDS011;49973;52.084;5.412;2024-02-16T03:03:02;1.93;;;1.83;;
61911;SDS011;49973;52.084;5.412;2024-02-16T03:05:31;1.70;;;1.57;;
61911;SDS011;49973;52.084;5.412;2024-02-16T03:07:59;1.70;;;1.27;;
61911;SDS011;49973;52.084;5.412;2024-02-16T03:10:29;1.73;;;1.03;;
61911;SDS011;49973;52.084;5.412;2024-02-16T03:13:01;2.17;;;1.30;;
61911;SDS011;49973;52.084;5.412;2024-02-16T03:15:32;1.20;;;1.00;;
61911;SDS011;49973;52.084;5.412;2024-02-16T03:18:02;1.30;;;1.03;;
61911;SDS011;49973;52.084;5.412;2024-02-16T03:20:31;3.53;;;1.43;;
61911;SDS011;49973;52.084;5.412;2024-02-16T03:23:00;2.23;;;1.23;;
61911;SDS011;49973;52.084;5.412;2024-02-16T03:25:29;1.20;;;1.10;;
61911;SDS011;49973;52.084;5.412;2024-02-16T03:27:58;1.47;;;1.27;;
61911;SDS011;49973;52.084;5.412;2024-02-16T03:30:27;1.27;;;1.00;;
61911;SDS011;49973;52.084;5.412;2024-02-16T03:32:57;6.23;;;1.50;;
61911;SDS011;49973;52.084;5.412;2024-02-16T03:35:26;1.97;;;1.00;;
61911;SDS011;49973;52.084;5.412;2024-02-16T03:37:55;1.20;;;1.07;;
61911;SDS011;49973;52.084;5.412;2024-02-16T03:40:24;2.27;;;1.13;;
61911;SDS011;49973;52.084;5.412;2024-02-16T03:42:52;1.20;;;1.10;;
61911;SDS011;49973;52.084;5.412;2024-02-16T03:45:21;8.57;;;1.87;;
61911;SDS011;49973;52.084;5.412;2024-02-16T03:47:51;1.40;;;1.30;;
61911;SDS011;49973;52.084;5.412;2024-02-16T03:50:21;1.73;;;1.30;;
61911;SDS011;49973;52.084;5.412;2024-02-16T03:52:50;1.57;;;1.23;;
61911;SDS011;49973;52.084;5.412;2024-02-16T03:55:19;1.77;;;1.13;;
61911;SDS011;49973;52.084;5.412;2024-02-16T03:57:48;2.80;;;1.40;;
61911;SDS011;49973;52.084;5.412;2024-02-16T04:00:17;1.30;;;0.97;;
61911;SDS011;49973;52.084;5.412;2024-02-16T04:02:47;1.30;;;1.07;;
61911;SDS011;49973;52.084;5.412;2024-02-16T04:05:16;2.73;;;1.63;;
61911;SDS011;49973;52.084;5.412;2024-02-16T04:07:46;1.57;;;1.20;;
61911;SDS011;49973;52.084;5.412;2024-02-16T04:10:15;1.50;;;1.30;;
61911;SDS011;49973;52.084;5.412;2024-02-16T04:12:43;2.60;;;1.40;;
61911;SDS011;49973;52.084;5.412;2024-02-16T04:15:13;3.40;;;1.67;;
61911;SDS011;49973;52.084;5.412;2024-02-16T04:17:41;2.17;;;1.40;;
61911;SDS011;49973;52.084;5.412;2024-02-16T04:20:10;2.43;;;0.90;;
61911;SDS011;49973;52.084;5.412;2024-02-16T04:22:39;6.10;;;1.80;;
61911;SDS011;49973;52.084;5.412;2024-02-16T04:25:09;1.37;;;1.07;;
61911;SDS011;49973;52.084;5.412;2024-02-16T04:27:37;2.53;;;1.47;;
61911;SDS011;49973;52.084;5.412;2024-02-16T04:30:06;1.33;;;1.23;;
61911;SDS011;49973;52.084;5.412;2024-02-16T04:32:35;4.83;;;1.83;;
61911;SDS011;49973;52.084;5.412;2024-02-16T04:35:04;1.00;;;0.97;;
61911;SDS011;49973;52.084;5.412;2024-02-16T04:37:34;1.73;;;1.40;;
61911;SDS011;49973;52.084;5.412;2024-02-16T04:40:03;2.13;;;1.40;;
61911;SDS011;49973;52.084;5.412;2024-02-16T04:42:34;3.40;;;1.60;;
61911;SDS011;49973;52.084;5.412;2024-02-16T04:45:03;1.77;;;1.40;;
61911;SDS011;49973;52.084;5.412;2024-02-16T04:47:32;1.87;;;0.87;;
61911;SDS011;49973;52.084;5.412;2024-02-16T04:50:01;1.90;;;1.20;;
61911;SDS011;49973;52.084;5.412;2024-02-16T04:52:30;1.93;;;1.40;;
61911;SDS011;49973;52.084;5.412;2024-02-16T04:54:58;2.87;;;1.77;;
61911;SDS011;49973;52.084;5.412;2024-02-16T04:57:27;1.20;;;1.03;;
61911;SDS011;49973;52.084;5.412;2024-02-16T04:59:57;1.90;;;1.70;;
61911;SDS011;49973;52.084;5.412;2024-02-16T05:02:26;2.23;;;1.80;;
61911;SDS011;49973;52.084;5.412;2024-02-16T05:04:54;1.73;;;1.33;;
61911;SDS011;49973;52.084;5.412;2024-02-16T05:07:26;3.53;;;1.43;;
61911;SDS011;49973;52.084;5.412;2024-02-16T05:09:54;3.77;;;1.30;;
61911;SDS011;49973;52.084;5.412;2024-02-16T05:12:25;3.70;;;1.30;;
61911;SDS011;49973;52.084;5.412;2024-02-16T05:14:54;1.70;;;1.33;;
61911;SDS011;49973;52.084;5.412;2024-02-16T05:17:24;6.17;;;1.93;;
61911;SDS011;49973;52.084;5.412;2024-02-16T05:19:53;2.00;;;1.57;;
61911;SDS011;49973;52.084;5.412;2024-02-16T05:22:22;1.50;;;1.40;;
61911;SDS011;49973;52.084;5.412;2024-02-16T05:24:50;1.23;;;1.10;;
61911;SDS011;49973;52.084;5.412;2024-02-16T05:27:19;2.23;;;1.47;;
61911;SDS011;49973;52.084;5.412;2024-02-16T05:29:47;1.00;;;0.90;;
61911;SDS011;49973;52.084;5.412;2024-02-16T05:32:17;1.43;;;1.33;;
61911;SDS011;49973;52.084;5.412;2024-02-16T05:34:47;2.23;;;1.43;;
61911;SDS011;49973;52.084;5.412;2024-02-16T05:37:17;1.40;;;1.30;;
61911;SDS011;49973;52.084;5.412;2024-02-16T05:39:47;1.50;;;1.27;;
61911;SDS011;49973;52.084;5.412;2024-02-16T05:42:24;1.40;;;1.30;;
61911;SDS011;49973;52.084;5.412;2024-02-16T05:44:53;2.47;;;1.20;;
61911;SDS011;49973;52.084;5.412;2024-02-16T05:47:21;4.10;;;1.30;;
61911;SDS011;49973;52.084;5.412;2024-02-16T05:49:51;1.20;;;1.10;;
61911;SDS011;49973;52.084;5.412;2024-02-16T05:52:20;1.50;;;1.20;;
61911;SDS011;49973;52.084;5.412;2024-02-16T05:54:50;2.77;;;1.47;;
61911;SDS011;49973;52.084;5.412;2024-02-16T05:57:18;2.23;;;1.30;;
61911;SDS011;49973;52.084;5.412;2024-02-16T05:59:47;3.07;;;1.60;;
61911;SDS011;49973;52.084;5.412;2024-02-16T06:02:19;5.27;;;1.83;;
61911;SDS011;49973;52.084;5.412;2024-02-16T06:04:47;2.00;;;1.70;;
61911;SDS011;49973;52.084;5.412;2024-02-16T06:07:18;2.33;;;1.17;;
61911;SDS011;49973;52.084;5.412;2024-02-16T06:09:47;2.10;;;1.40;;
61911;SDS011;49973;52.084;5.412;2024-02-16T06:12:15;1.93;;;1.10;;
61911;SDS011;49973;52.084;5.412;2024-02-16T06:14:44;1.60;;;1.13;;
61911;SDS011;49973;52.084;5.412;2024-02-16T06:17:12;2.10;;;1.40;;
61911;SDS011;49973;52.084;5.412;2024-02-16T06:19:41;3.17;;;1.10;;
61911;SDS011;49973;52.084;5.412;2024-02-16T06:22:11;2.93;;;1.40;;
61911;SDS011;49973;52.084;5.412;2024-02-16T06:24:40;2.43;;;1.47;;
61911;SDS011;49973;52.084;5.412;2024-02-16T06:27:09;5.90;;;2.30;;
61911;SDS011;49973;52.084;5.412;2024-02-16T06:29:38;2.83;;;1.33;;
61911;SDS011;49973;52.084;5.412;2024-02-16T06:32:06;2.93;;;1.70;;
61911;SDS011;49973;52.084;5.412;2024-02-16T06:34:38;2.37;;;1.60;;
61911;SDS011;49973;52.084;5.412;2024-02-16T06:37:06;2.10;;;1.60;;
61911;SDS011;49973;52.084;5.412;2024-02-16T06:39:35;1.23;;;1.13;;
61911;SDS011;49973;52.084;5.412;2024-02-16T06:42:05;2.53;;;1.30;;
61911;SDS011;49973;52.084;5.412;2024-02-16T06:44:34;1.93;;;1.10;;
61911;SDS011;49973;52.084;5.412;2024-02-16T06:47:02;2.43;;;1.43;;
61911;SDS011;49973;52.084;5.412;2024-02-16T06:49:31;2.97;;;1.50;;
61911;SDS011;49973;52.084;5.412;2024-02-16T06:52:00;1.97;;;1.40;;
61911;SDS011;49973;52.084;5.412;2024-02-16T06:54:28;1.47;;;1.37;;
61911;SDS011;49973;52.084;5.412;2024-02-16T06:56:57;1.87;;;0.97;;
61911;SDS011;49973;52.084;5.412;2024-02-16T06:59:26;3.13;;;1.70;;
61911;SDS011;49973;52.084;5.412;2024-02-16T07:01:55;2.80;;;1.30;;
61911;SDS011;49973;52.084;5.412;2024-02-16T07:04:23;1.33;;;1.00;;
61911;SDS011;49973;52.084;5.412;2024-02-16T07:06:52;1.17;;;0.97;;
61911;SDS011;49973;52.084;5.412;2024-02-16T07:09:21;3.30;;;1.37;;
61911;SDS011;49973;52.084;5.412;2024-02-16T07:11:49;2.33;;;0.97;;
61911;SDS011;49973;52.084;5.412;2024-02-16T07:14:20;1.27;;;1.10;;
61911;SDS011;49973;52.084;5.412;2024-02-16T07:16:50;1.83;;;1.03;;
61911;SDS011;49973;52.084;5.412;2024-02-16T07:19:19;2.37;;;1.37;;
61911;SDS011;49973;52.084;5.412;2024-02-16T07:21:48;2.53;;;1.73;;
61911;SDS011;49973;52.084;5.412;2024-02-16T07:24:16;2.27;;;1.67;;
61911;SDS011;49973;52.084;5.412;2024-02-16T07:26:45;3.13;;;1.73;;
61911;SDS011;49973;52.084;5.412;2024-02-16T07:29:15;2.87;;;1.67;;
61911;SDS011;49973;52.084;5.412;2024-02-16T07:31:44;2.70;;;1.70;;
61911;SDS011;49973;52.084;5.412;2024-02-16T07:34:14;5.90;;;2.23;;
61911;SDS011;49973;52.084;5.412;2024-02-16T07:36:43;2.37;;;1.80;;
61911;SDS011;49973;52.084;5.412;2024-02-16T07:39:11;3.37;;;2.17;;
61911;SDS011;49973;52.084;5.412;2024-02-16T07:41:40;5.23;;;1.70;;
61911;SDS011;49973;52.084;5.412;2024-02-16T07:44:08;3.90;;;1.70;;
61911;SDS011;49973;52.084;5.412;2024-02-16T07:46:40;1.20;;;1.10;;
61911;SDS011;49973;52.084;5.412;2024-02-16T07:49:10;1.97;;;1.50;;
61911;SDS011;49973;52.084;5.412;2024-02-16T07:51:40;2.03;;;1.30;;
61911;SDS011;49973;52.084;5.412;2024-02-16T07:54:09;2.27;;;1.40;;
61911;SDS011;49973;52.084;5.412;2024-02-16T07:56:38;4.40;;;1.87;;
61911;SDS011;49973;52.084;5.412;2024-02-16T07:59:06;6.03;;;1.47;;
61911;SDS011;49973;52.084;5.412;2024-02-16T08:01:35;4.87;;;2.03;;
61911;SDS011;49973;52.084;5.412;2024-02-16T08:04:04;3.20;;;1.83;;
61911;SDS011;49973;52.084;5.412;2024-02-16T08:06:33;1.53;;;1.40;;
61911;SDS011;49973;52.084;5.412;2024-02-16T08:09:03;2.43;;;1.57;;
61911;SDS011;49973;52.084;5.412;2024-02-16T08:11:33;2.00;;;1.80;;
61911;SDS011;49973;52.084;5.412;2024-02-16T08:14:02;2.00;;;1.10;;
61911;SDS011;49973;52.084;5.412;2024-02-16T08:16:30;4.30;;;1.40;;
61911;SDS011;49973;52.084;5.412;2024-02-16T08:18:59;2.80;;;1.67;;
61911;SDS011;49973;52.084;5.412;2024-02-16T08:21:27;1.87;;;1.43;;
61911;SDS011;49973;52.084;5.412;2024-02-16T08:23:56;2.20;;;1.83;;
61911;SDS011;49973;52.084;5.412;2024-02-16T08:26:26;3.27;;;1.90;;
61911;SDS011;49973;52.084;5.412;2024-02-16T08:28:55;3.37;;;1.97;;
61911;SDS011;49973;52.084;5.412;2024-02-16T08:31:23;5.57;;;2.07;;
61911;SDS011;49973;52.084;5.412;2024-02-16T08:33:52;2.57;;;1.70;;
61911;SDS011;49973;52.084;5.412;2024-02-16T08:36:21;3.00;;;1.80;;
61911;SDS011;49973;52.084;5.412;2024-02-16T08:38:55;4.70;;;1.63;;
61911;SDS011;49973;52.084;5.412;2024-02-16T08:41:23;1.53;;;1.03;;
61911;SDS011;49973;52.084;5.412;2024-02-16T08:43:53;2.07;;;1.30;;
61911;SDS011;49973;52.084;5.412;2024-02-16T08:46:23;2.07;;;1.80;;
61911;SDS011;49973;52.084;5.412;2024-02-16T08:48:52;2.17;;;1.30;;
61911;SDS011;49973;52.084;5.412;2024-02-16T08:51:20;2.23;;;1.60;;
61911;SDS011;49973;52.084;5.412;2024-02-16T08:53:49;2.07;;;1.70;;
61911;SDS011;49973;52.084;5.412;2024-02-16T08:56:18;2.40;;;1.53;;
61911;SDS011;49973;52.084;5.412;2024-02-16T08:58:46;4.47;;;1.93;;
61911;SDS011;49973;52.084;5.412;2024-02-16T09:01:16;2.87;;;1.70;;
61911;SDS011;49973;52.084;5.412;2024-02-16T09:03:45;1.90;;;1.57;;
61911;SDS011;49973;52.084;5.412;2024-02-16T09:06:14;3.23;;;2.00;;
61911;SDS011;49973;52.084;5.412;2024-02-16T09:08:43;3.87;;;1.57;;
61911;SDS011;49973;52.084;5.412;2024-02-16T09:11:12;2.87;;;2.20;;
61911;SDS011;49973;52.084;5.412;2024-02-16T09:13:41;3.33;;;2.60;;
61911;SDS011;49973;52.084;5.412;2024-02-16T09:16:10;5.83;;;2.67;;
61911;SDS011;49973;52.084;5.412;2024-02-16T09:18:40;2.57;;;1.80;;
61911;SDS011;49973;52.084;5.412;2024-02-16T09:21:08;5.83;;;2.60;;
61911;SDS011;49973;52.084;5.412;2024-02-16T09:23:37;4.50;;;2.30;;
61911;SDS011;49973;52.084;5.412;2024-02-16T09:26:06;6.20;;;1.50;;
61911;SDS011;49973;52.084;5.412;2024-02-16T09:28:38;2.63;;;1.47;;
61911;SDS011;49973;52.084;5.412;2024-02-16T09:31:08;1.77;;;1.57;;
61911;SDS011;49973;52.084;5.412;2024-02-16T09:33:37;4.37;;;1.90;;
61911;SDS011;49973;52.084;5.412;2024-02-16T09:36:08;3.57;;;2.00;;
61911;SDS011;49973;52.084;5.412;2024-02-16T09:38:37;4.47;;;2.33;;
61911;SDS011;49973;52.084;5.412;2024-02-16T09:41:06;3.57;;;1.87;;
61911;SDS011;49973;52.084;5.412;2024-02-16T09:43:35;3.77;;;2.03;;
61911;SDS011;49973;52.084;5.412;2024-02-16T09:46:06;2.97;;;2.23;;
61911;SDS011;49973;52.084;5.412;2024-02-16T09:48:36;4.63;;;2.47;;
61911;SDS011;49973;52.084;5.412;2024-02-16T09:51:12;1.83;;;1.70;;
61911;SDS011;49973;52.084;5.412;2024-02-16T09:53:41;5.20;;;2.60;;
61911;SDS011;49973;52.084;5.412;2024-02-16T09:56:09;3.27;;;2.13;;
61911;SDS011;49973;52.084;5.412;2024-02-16T09:58:38;3.57;;;2.27;;
61911;SDS011;49973;52.084;5.412;2024-02-16T10:01:06;2.97;;;2.07;;
61911;SDS011;49973;52.084;5.412;2024-02-16T10:03:35;3.27;;;2.07;;
61911;SDS011;49973;52.084;5.412;2024-02-16T10:06:05;3.97;;;2.30;;
61911;SDS011;49973;52.084;5.412;2024-02-16T10:08:46;4.70;;;2.20;;
61911;SDS011;49973;52.084;5.412;2024-02-16T10:11:17;6.73;;;2.30;;
61911;SDS011;49973;52.084;5.412;2024-02-16T10:13:56;2.80;;;1.67;;
61911;SDS011;49973;52.084;5.412;2024-02-16T10:16:25;3.47;;;2.23;;
61911;SDS011;49973;52.084;5.412;2024-02-16T10:18:54;3.27;;;2.07;;
61911;SDS011;49973;52.084;5.412;2024-02-16T10:21:26;3.90;;;2.30;;
61911;SDS011;49973;52.084;5.412;2024-02-16T10:23:59;4.33;;;2.13;;
61911;SDS011;49973;52.084;5.412;2024-02-16T10:26:31;4.33;;;2.30;;
61911;SDS011;49973;52.084;5.412;2024-02-16T10:29:04;2.70;;;1.93;;
61911;SDS011;49973;52.084;5.412;2024-02-16T10:31:35;6.03;;;2.90;;
61911;SDS011;49973;52.084;5.412;2024-02-16T10:34:04;3.60;;;2.10;;
61911;SDS011;49973;52.084;5.412;2024-02-16T10:36:38;3.30;;;2.20;;
61911;SDS011;49973;52.084;5.412;2024-02-16T10:39:08;11.30;;;2.90;;
61911;SDS011;49973;52.084;5.412;2024-02-16T10:41:40;10.97;;;3.07;;
61911;SDS011;49973;52.084;5.412;2024-02-16T10:44:09;4.50;;;2.27;;
61911;SDS011;49973;52.084;5.412;2024-02-16T10:46:38;4.07;;;2.47;;
61911;SDS011;49973;52.084;5.412;2024-02-16T10:49:08;5.30;;;3.07;;
61911;SDS011;49973;52.084;5.412;2024-02-16T10:51:39;3.50;;;2.03;;
61911;SDS011;49973;52.084;5.412;2024-02-16T10:54:12;3.13;;;2.27;;
61911;SDS011;49973;52.084;5.412;2024-02-16T10:56:44;7.67;;;2.23;;
61911;SDS011;49973;52.084;5.412;2024-02-16T10:59:13;6.40;;;2.70;;
61911;SDS011;49973;52.084;5.412;2024-02-16T11:01:44;3.57;;;2.97;;
61911;SDS011;49973;52.084;5.412;2024-02-16T11:04:14;4.80;;;2.97;;
61911;SDS011;49973;52.084;5.412;2024-02-16T11:06:52;5.10;;;2.53;;
61911;SDS011;49973;52.084;5.412;2024-02-16T11:09:26;5.60;;;2.63;;
61911;SDS011;49973;52.084;5.412;2024-02-16T11:11:58;5.23;;;3.30;;
61911;SDS011;49973;52.084;5.412;2024-02-16T11:14:34;7.73;;;3.13;;
61911;SDS011;49973;52.084;5.412;2024-02-16T11:17:07;4.40;;;2.70;;
61911;SDS011;49973;52.084;5.412;2024-02-16T11:19:37;3.10;;;2.50;;
61911;SDS011;49973;52.084;5.412;2024-02-16T11:22:09;3.03;;;2.43;;
61911;SDS011;49973;52.084;5.412;2024-02-16T11:24:42;3.80;;;2.87;;
61911;SDS011;49973;52.084;5.412;2024-02-16T11:27:12;5.20;;;3.10;;
61911;SDS011;49973;52.084;5.412;2024-02-16T11:29:42;4.63;;;2.93;;
61911;SDS011;49973;52.084;5.412;2024-02-16T11:32:11;5.80;;;3.67;;
61911;SDS011;49973;52.084;5.412;2024-02-16T11:34:40;4.87;;;3.10;;
61911;SDS011;49973;52.084;5.412;2024-02-16T11:37:10;4.60;;;3.30;;
61911;SDS011;49973;52.084;5.412;2024-02-16T11:39:41;5.40;;;2.93;;
61911;SDS011;49973;52.084;5.412;2024-02-16T11:42:12;6.50;;;3.10;;
61911;SDS011;49973;52.084;5.412;2024-02-16T11:44:50;4.50;;;3.13;;
61911;SDS011;49973;52.084;5.412;2024-02-16T11:47:20;3.83;;;2.57;;
61911;SDS011;49973;52.084;5.412;2024-02-16T11:50:01;6.40;;;3.40;;
61911;SDS011;49973;52.084;5.412;2024-02-16T11:52:32;5.07;;;3.17;;
61911;SDS011;49973;52.084;5.412;2024-02-16T11:55:02;6.03;;;3.57;;
61911;SDS011;49973;52.084;5.412;2024-02-16T11:57:32;4.33;;;3.53;;
61911;SDS011;49973;52.084;5.412;2024-02-16T12:00:02;5.53;;;3.20;;
61911;SDS011;49973;52.084;5.412;2024-02-16T12:02:35;5.30;;;3.60;;
61911;SDS011;49973;52.084;5.412;2024-02-16T12:05:04;3.60;;;2.70;;
61911;SDS011;49973;52.084;5.412;2024-02-16T12:07:37;4.03;;;3.00;;
61911;SDS011;49973;52.084;5.412;2024-02-16T12:10:08;2.73;;;2.50;;
61911;SDS011;49973;52.084;5.412;2024-02-16T12:12:37;5.53;;;2.87;;
61911;SDS011;49973;52.084;5.412;2024-02-16T12:15:06;3.47;;;2.43;;
61911;SDS011;49973;52.084;5.412;2024-02-16T12:17:36;8.53;;;3.63;;
61911;SDS011;49973;52.084;5.412;2024-02-16T12:20:10;5.93;;;3.60;;
61911;SDS011;49973;52.084;5.412;2024-02-16T12:22:41;7.03;;;3.83;;
61911;SDS011;49973;52.084;5.412;2024-02-16T12:25:10;5.40;;;3.30;;
61911;SDS011;49973;52.084;5.412;2024-02-16T12:27:39;3.87;;;2.63;;
61911;SDS011;49973;52.084;5.412;2024-02-16T12:30:08;5.03;;;3.23;;
61911;SDS011;49973;52.084;5.412;2024-02-16T12:32:38;5.20;;;3.40;;
61911;SDS011;49973;52.084;5.412;2024-02-16T12:35:07;4.87;;;3.03;;
61911;SDS011;49973;52.084;5.412;2024-02-16T12:37:36;5.63;;;2.40;;
61911;SDS011;49973;52.084;5.412;2024-02-16T12:40:07;3.33;;;1.93;;
61911;SDS011;49973;52.084;5.412;2024-02-16T12:42:36;2.27;;;1.43;;
61911;SDS011;49973;52.084;5.412;2024-02-16T12:45:06;2.47;;;1.30;;
61911;SDS011;49973;52.084;5.412;2024-02-16T12:47:35;3.00;;;1.60;;
61911;SDS011;49973;52.084;5.412;2024-02-16T12:50:04;2.27;;;1.60;;
61911;SDS011;49973;52.084;5.412;2024-02-16T12:52:33;3.33;;;1.40;;
61911;SDS011;49973;52.084;5.412;2024-02-16T12:55:18;1.57;;;0.77;;
61911;SDS011;49973;52.084;5.412;2024-02-16T12:57:47;6.83;;;1.57;;
61911;SDS011;49973;52.084;5.412;2024-02-16T13:00:17;1.83;;;1.30;;
61911;SDS011;49973;52.084;5.412;2024-02-16T13:02:46;1.70;;;1.13;;
61911;SDS011;49973;52.084;5.412;2024-02-16T13:05:15;1.77;;;1.00;;
61911;SDS011;49973;52.084;5.412;2024-02-16T13:07:43;1.73;;;1.10;;
61911;SDS011;49973;52.084;5.412;2024-02-16T13:10:12;3.33;;;1.57;;
61911;SDS011;49973;52.084;5.412;2024-02-16T13:12:43;2.50;;;1.57;;
61911;SDS011;49973;52.084;5.412;2024-02-16T13:15:12;3.17;;;1.50;;
61911;SDS011;49973;52.084;5.412;2024-02-16T13:17:54;2.03;;;1.30;;
61911;SDS011;49973;52.084;5.412;2024-02-16T13:20:23;1.40;;;1.07;;
61911;SDS011;49973;52.084;5.412;2024-02-16T13:22:52;1.77;;;1.13;;
61911;SDS011;49973;52.084;5.412;2024-02-16T13:25:20;1.80;;;1.20;;
61911;SDS011;49973;52.084;5.412;2024-02-16T13:27:50;0.90;;;0.90;;
61911;SDS011;49973;52.084;5.412;2024-02-16T13:30:19;1.70;;;1.07;;
61911;SDS011;49973;52.084;5.412;2024-02-16T13:32:48;1.00;;;0.80;;
61911;SDS011;49973;52.084;5.412;2024-02-16T13:35:16;0.57;;;0.53;;
61911;SDS011;49973;52.084;5.412;2024-02-16T13:37:48;1.03;;;0.97;;
61911;SDS011;49973;52.084;5.412;2024-02-16T13:40:16;0.97;;;0.83;;
61911;SDS011;49973;52.084;5.412;2024-02-16T13:42:45;1.07;;;0.97;;
61911;SDS011;49973;52.084;5.412;2024-02-16T13:45:16;4.03;;;1.00;;
61911;SDS011;49973;52.084;5.412;2024-02-16T13:47:45;2.97;;;0.80;;
61911;SDS011;49973;52.084;5.412;2024-02-16T13:50:14;0.77;;;0.70;;
61911;SDS011;49973;52.084;5.412;2024-02-16T13:52:42;0.83;;;0.60;;
61911;SDS011;49973;52.084;5.412;2024-02-16T13:55:11;0.83;;;0.83;;
61911;SDS011;49973;52.084;5.412;2024-02-16T13:57:40;4.00;;;1.00;;
61911;SDS011;49973;52.084;5.412;2024-02-16T14:00:09;1.17;;;0.70;;
61911;SDS011;49973;52.084;5.412;2024-02-16T14:02:40;0.70;;;0.70;;
61911;SDS011;49973;52.084;5.412;2024-02-16T14:05:09;0.50;;;0.50;;
61911;SDS011;49973;52.084;5.412;2024-02-16T14:07:39;0.60;;;0.60;;
61911;SDS011;49973;52.084;5.412;2024-02-16T14:10:20;2.80;;;0.93;;
61911;SDS011;49973;52.084;5.412;2024-02-16T14:12:48;0.80;;;0.80;;
61911;SDS011;49973;52.084;5.412;2024-02-16T14:15:17;1.00;;;0.90;;
61911;SDS011;49973;52.084;5.412;2024-02-16T14:17:48;0.97;;;0.77;;
61911;SDS011;49973;52.084;5.412;2024-02-16T14:20:17;1.27;;;1.03;;
61911;SDS011;49973;52.084;5.412;2024-02-16T14:22:47;1.67;;;1.30;;
61911;SDS011;49973;52.084;5.412;2024-02-16T14:25:16;2.77;;;1.47;;
61911;SDS011;49973;52.084;5.412;2024-02-16T14:27:46;2.43;;;1.40;;
61911;SDS011;49973;52.084;5.412;2024-02-16T14:30:14;2.03;;;1.40;;
61911;SDS011;49973;52.084;5.412;2024-02-16T14:32:43;1.37;;;0.83;;
61911;SDS011;49973;52.084;5.412;2024-02-16T14:35:13;2.17;;;1.53;;
61911;SDS011;49973;52.084;5.412;2024-02-16T14:37:42;1.53;;;1.30;;
61911;SDS011;49973;52.084;5.412;2024-02-16T14:40:11;2.07;;;1.10;;
61911;SDS011;49973;52.084;5.412;2024-02-16T14:42:39;1.33;;;1.20;;
61911;SDS011;49973;52.084;5.412;2024-02-16T14:45:09;5.50;;;1.43;;
61911;SDS011;49973;52.084;5.412;2024-02-16T14:47:47;2.47;;;1.87;;
61911;SDS011;49973;52.084;5.412;2024-02-16T14:50:17;5.30;;;2.27;;
61911;SDS011;49973;52.084;5.412;2024-02-16T14:52:46;6.23;;;1.90;;
61911;SDS011;49973;52.084;5.412;2024-02-16T14:55:14;1.73;;;1.37;;
61911;SDS011;49973;52.084;5.412;2024-02-16T14:57:43;2.57;;;1.80;;
61911;SDS011;49973;52.084;5.412;2024-02-16T15:00:12;2.20;;;1.67;;
61911;SDS011;49973;52.084;5.412;2024-02-16T15:02:42;2.40;;;1.30;;